Time;durP1;ratioP1;P1;durP2;ratioP2;P2;SDS_P1;SDS_P2;PMS_P1;PMS_P2;Temp;Humidity;BMP_temperature;BMP_pressure;BME280_temperature;BME280_humidity;BME280_pressure;Samples;Min_cycle;Max_cycle;Signal;HPM_P1;HPM_P2
2023/01/05 00:01:50;;;;;;;19.35;3.03;;;10.60;99.90;;;;;;5029597;28;20453;-63
2023/01/05 00:04:16;;;;;;;19.20;3.17;;;10.60;99.90;;;;;;5046279;28;20025;-63
2023/01/05 00:06:42;;;;;;;19.70;3.38;;;10.60;99.90;;;;;;5042800;28;20025;-63
2023/01/05 00:09:10;;;;;;;22.60;3.92;;;10.60;99.90;;;;;;5049934;28;20101;-63
2023/01/05 00:22:52;;;;;;;11.13;3.28;;;10.60;99.90;;;;;;5044506;28;20083;-64
2023/01/05 00:25:24;;;;;;;21.45;3.65;;;10.60;99.90;;;;;;5046497;28;20025;-63
2023/01/05 00:27:51;;;;;;;16.92;2.60;;;10.60;99.90;;;;;;5046191;28;20025;-63
2023/01/05 00:30:22;;;;;;;14.25;2.55;;;10.60;99.90;;;;;;5014035;28;20461;-64
2023/01/05 00:32:48;;;;;;;25.98;4.05;;;10.60;99.90;;;;;;5049454;28;20029;-63
2023/01/05 00:35:15;;;;;;;22.70;4.03;;;10.60;99.90;;;;;;5046978;28;20035;-62
2023/01/05 00:37:41;;;;;;;22.35;3.28;;;10.60;99.90;;;;;;5049358;28;20025;-63
2023/01/05 00:40:13;;;;;;;19.00;3.10;;;10.60;99.90;;;;;;5046840;28;20038;-63
2023/01/05 00:42:39;;;;;;;20.73;3.13;;;10.60;99.90;;;;;;5048349;28;20021;-64
2023/01/05 00:45:06;;;;;;;21.25;3.05;;;10.60;99.90;;;;;;5038240;28;20410;-62
2023/01/05 00:47:32;;;;;;;20.92;3.13;;;10.60;99.90;;;;;;5044970;28;20053;-64
2023/01/05 00:49:58;;;;;;;25.08;4.60;;;10.60;99.90;;;;;;5038346;28;20059;-62
2023/01/05 00:52:23;;;;;;;15.68;2.97;;;10.60;99.90;;;;;;5038419;28;20043;-62
2023/01/05 00:54:49;;;;;;;16.63;3.42;;;10.60;99.90;;;;;;5043801;28;20033;-63
2023/01/05 00:57:14;;;;;;;14.32;2.30;;;10.60;99.90;;;;;;5043328;28;20166;-63
2023/01/05 00:59:40;;;;;;;14.32;2.80;;;10.60;99.90;;;;;;5041056;28;20025;-62
2023/01/05 01:02:06;;;;;;;19.27;2.78;;;10.60;99.90;;;;;;5039416;28;20025;-62
2023/01/05 01:04:33;;;;;;;23.65;3.17;;;10.60;99.90;;;;;;5040534;28;20021;-62
2023/01/05 01:06:59;;;;;;;22.48;4.90;;;10.60;99.90;;;;;;5038975;28;20533;-63
2023/01/05 01:09:25;;;;;;;20.10;3.65;;;10.50;99.90;;;;;;5036514;28;20028;-63
2023/01/05 01:11:50;;;;;;;16.63;2.80;;;10.50;99.90;;;;;;5052704;28;20549;-63
2023/01/05 01:14:16;;;;;;;14.50;2.40;;;10.50;99.90;;;;;;5047998;28;20100;-63
2023/01/05 01:16:42;;;;;;;19.58;3.22;;;10.50;99.90;;;;;;5048516;28;20035;-64
2023/01/05 01:19:19;;;;;;;13.70;3.03;;;10.50;99.90;;;;;;5063004;28;20456;-63
2023/01/05 01:21:45;;;;;;;16.42;2.45;;;10.50;99.90;;;;;;5047273;28;20135;-61
2023/01/05 01:24:26;;;;;;;21.27;3.00;;;10.50;99.90;;;;;;5047518;28;20136;-63
2023/01/05 01:26:53;;;;;;;21.98;4.20;;;10.50;99.90;;;;;;5042167;28;20048;-64
2023/01/05 01:29:20;;;;;;;17.95;4.75;;;10.50;99.90;;;;;;5005211;28;20483;-61
2023/01/05 01:31:51;;;;;;;20.83;2.70;;;10.50;99.90;;;;;;5039609;28;20024;-63
2023/01/05 01:34:17;;;;;;;17.05;3.08;;;10.50;99.90;;;;;;5041779;28;20039;-63
2023/01/05 01:36:43;;;;;;;29.60;3.90;;;10.50;99.90;;;;;;5042832;28;20036;-63
2023/01/05 01:39:10;;;;;;;25.13;2.90;;;10.50;99.90;;;;;;5041115;28;20028;-63
2023/01/05 01:41:35;;;;;;;19.38;3.75;;;10.50;99.90;;;;;;5036010;28;20040;-63
2023/01/05 01:44:01;;;;;;;19.00;2.90;;;10.50;99.90;;;;;;5040223;28;20017;-63
2023/01/05 01:46:27;;;;;;;22.52;2.55;;;10.50;99.90;;;;;;5037630;28;20036;-63
2023/01/05 01:49:00;;;;;;;25.48;3.55;;;10.50;99.90;;;;;;5040609;28;20028;-63
2023/01/05 01:51:31;;;;;;;24.52;3.28;;;10.50;99.90;;;;;;5037358;28;20755;-63
2023/01/05 01:54:00;;;;;;;21.30;3.13;;;10.40;99.90;;;;;;5042912;28;20178;-62
2023/01/05 01:56:31;;;;;;;8.00;2.25;;;10.40;99.90;;;;;;5036657;28;20631;-63
2023/01/05 01:58:56;;;;;;;23.27;3.72;;;10.40;99.90;;;;;;5042794;28;20497;-63
2023/01/05 02:01:22;;;;;;;14.07;3.10;;;10.40;99.90;;;;;;5036930;28;20108;-62
2023/01/05 02:03:48;;;;;;;13.60;2.65;;;10.40;99.90;;;;;;5045197;28;20474;-63
2023/01/05 02:06:14;;;;;;;21.15;3.80;;;10.40;99.90;;;;;;5043869;28;20738;-64
2023/01/05 02:08:39;;;;;;;17.45;3.00;;;10.40;99.90;;;;;;5044374;28;20033;-63
2023/01/05 02:11:42;;;;;;;18.75;3.05;;;10.40;99.90;;;;;;5042083;28;20127;-63
2023/01/05 02:14:32;;;;;;;25.08;4.40;;;10.40;99.90;;;;;;5044853;28;20025;-63
2023/01/05 02:17:07;;;;;;;25.15;4.13;;;10.40;99.90;;;;;;5044966;28;20033;-63
2023/01/05 02:20:10;;;;;;;24.65;4.75;;;10.40;99.90;;;;;;5025662;28;20059;-63
2023/01/05 02:22:56;;;;;;;20.50;3.35;;;10.30;99.90;;;;;;5038248;28;20034;-63
2023/01/05 02:26:01;;;;;;;36.33;4.38;;;10.40;99.90;;;;;;5042311;28;20025;-63
2023/01/05 02:28:48;;;;;;;16.08;2.85;;;10.30;99.90;;;;;;5024356;28;20586;-63
2023/01/05 02:31:34;;;;;;;22.38;2.97;;;10.40;99.90;;;;;;5015514;28;20122;-62
2023/01/05 02:34:15;;;;;;;18.95;4.03;;;10.40;99.90;;;;;;5035272;28;20411;-63
2023/01/05 02:36:55;;;;;;;22.60;2.53;;;10.40;99.90;;;;;;5024548;28;20448;-64
2023/01/05 02:39:32;;;;;;;13.18;2.75;;;10.30;99.90;;;;;;5041760;28;20028;-64
2023/01/05 02:42:07;;;;;;;14.10;2.95;;;10.30;99.90;;;;;;5043528;28;20378;-64
2023/01/05 02:44:32;;;;;;;17.00;4.15;;;10.30;99.90;;;;;;5047694;28;20124;-63
2023/01/05 02:47:07;;;;;;;29.17;3.63;;;10.30;99.90;;;;;;5048429;28;20108;-63
2023/01/05 02:49:38;;;;;;;17.23;3.33;;;10.30;99.90;;;;;;5053099;28;20399;-63
2023/01/05 02:52:06;;;;;;;18.90;3.20;;;10.20;99.90;;;;;;5047009;28;20150;-64
2023/01/05 02:54:43;;;;;;;20.23;3.42;;;10.20;99.90;;;;;;5046404;28;20033;-63
2023/01/05 02:57:45;;;;;;;17.65;4.63;;;10.30;99.90;;;;;;5048266;28;20029;-63
2023/01/05 03:00:15;;;;;;;17.52;2.80;;;10.30;99.90;;;;;;5046404;28;20104;-63
2023/01/05 03:02:42;;;;;;;11.60;2.42;;;10.30;99.90;;;;;;5046049;28;20080;-64
2023/01/05 03:05:18;;;;;;;22.08;3.25;;;10.30;99.90;;;;;;5053885;28;20103;-63
2023/01/05 03:07:45;;;;;;;27.52;3.60;;;10.30;99.90;;;;;;5042922;28;20033;-63
2023/01/05 03:15:45;;;;;;;24.00;3.50;;;10.20;99.90;;;;;;5048164;28;20039;-64
2023/01/05 03:18:18;;;;;;;14.05;4.38;;;10.20;99.90;;;;;;5043000;28;20067;-63
2023/01/05 03:20:49;;;;;;;14.93;2.67;;;10.20;99.90;;;;;;5045360;28;20053;-64
2023/01/05 03:37:51;;;;;;;19.60;3.45;;;10.20;99.90;;;;;;5043904;28;20083;-63
2023/01/05 03:40:38;;;;;;;20.00;3.45;;;10.20;99.90;;;;;;5046770;28;20025;-63
2023/01/05 03:43:05;;;;;;;14.05;3.40;;;10.20;99.90;;;;;;5040215;28;20025;-63
2023/01/05 03:45:39;;;;;;;23.88;4.88;;;10.20;99.90;;;;;;5039897;28;20020;-63
2023/01/05 03:48:05;;;;;;;23.08;3.97;;;10.20;99.90;;;;;;5039706;28;20025;-63
2023/01/05 03:50:31;;;;;;;18.33;3.17;;;10.20;99.90;;;;;;5039345;28;20057;-63
2023/01/05 03:52:57;;;;;;;21.48;3.33;;;10.20;99.90;;;;;;5040158;28;20624;-63
2023/01/05 03:55:22;;;;;;;22.17;3.53;;;10.20;99.90;;;;;;5043634;28;20770;-63
2023/01/05 03:57:48;;;;;;;22.48;3.17;;;10.20;99.90;;;;;;5046820;28;20098;-63
2023/01/05 04:00:14;;;;;;;19.48;4.43;;;10.20;99.90;;;;;;5042481;28;20031;-63
2023/01/05 04:02:39;;;;;;;17.38;2.85;;;10.20;99.90;;;;;;5044030;28;20021;-63
2023/01/05 04:05:05;;;;;;;23.27;3.38;;;10.20;99.90;;;;;;5041227;28;20090;-62
2023/01/05 04:07:31;;;;;;;17.88;2.75;;;10.20;99.90;;;;;;5047810;28;20040;-63
2023/01/05 04:09:56;;;;;;;21.10;3.80;;;10.20;99.90;;;;;;5044050;28;20032;-63
2023/01/05 04:12:22;;;;;;;21.35;4.10;;;10.20;99.90;;;;;;5044008;28;20028;-63
2023/01/05 04:14:47;;;;;;;22.70;2.97;;;10.20;99.90;;;;;;5048472;28;21460;-63
2023/01/05 04:17:13;;;;;;;22.02;5.40;;;10.20;99.90;;;;;;5049121;28;20548;-63
2023/01/05 04:19:39;;;;;;;33.63;5.68;;;10.20;99.90;;;;;;5045418;28;20025;-63
2023/01/05 04:22:04;;;;;;;20.92;3.25;;;10.20;99.90;;;;;;5039073;28;20072;-63
2023/01/05 04:24:30;;;;;;;18.60;4.20;;;10.20;99.90;;;;;;5046465;28;20029;-62
2023/01/05 04:26:55;;;;;;;17.92;3.45;;;10.20;99.90;;;;;;5040934;28;20044;-62
2023/01/05 04:29:21;;;;;;;18.95;4.40;;;10.20;99.90;;;;;;5021374;22;20046;-64
2023/01/05 04:31:46;;;;;;;22.08;4.10;;;10.20;99.90;;;;;;4978275;28;20044;-64
2023/01/05 04:34:12;;;;;;;14.65;2.67;;;10.20;99.90;;;;;;4988543;28;21539;-65
2023/01/05 04:36:38;;;;;;;19.30;3.08;;;10.20;99.90;;;;;;4970792;28;20026;-66
2023/01/05 04:39:03;;;;;;;17.00;4.00;;;10.20;99.90;;;;;;4981788;28;20088;-65
2023/01/05 04:41:29;;;;;;;23.13;3.97;;;10.10;99.90;;;;;;4958838;28;20073;-65
2023/01/05 04:43:54;;;;;;;26.38;4.30;;;10.00;99.90;;;;;;4988779;28;20034;-65
2023/01/05 04:46:20;;;;;;;22.23;4.65;;;9.90;99.90;;;;;;4987742;28;20029;-64
2023/01/05 04:48:45;;;;;;;17.60;3.88;;;9.90;99.90;;;;;;4969192;28;20166;-65
2023/01/05 04:51:11;;;;;;;23.88;3.90;;;9.80;99.90;;;;;;4985888;28;20037;-65
2023/01/05 04:53:36;;;;;;;26.58;4.85;;;9.80;99.90;;;;;;4970097;28;20665;-65
2023/01/05 04:56:02;;;;;;;31.67;4.35;;;9.80;99.90;;;;;;4987424;28;20440;-64
2023/01/05 04:58:28;;;;;;;15.60;2.63;;;9.70;99.90;;;;;;4985386;28;20034;-64
2023/01/05 05:00:53;;;;;;;22.10;3.40;;;9.70;99.90;;;;;;4964196;28;20038;-63
2023/01/05 05:03:19;;;;;;;20.67;5.32;;;9.70;99.90;;;;;;4987239;28;20061;-65
2023/01/05 05:05:45;;;;;;;27.35;4.20;;;9.70;99.90;;;;;;4968599;28;20027;-64
2023/01/05 05:08:10;;;;;;;25.50;4.32;;;9.70;99.90;;;;;;4987042;28;20034;-63
2023/01/05 05:10:36;;;;;;;19.80;3.97;;;9.70;99.90;;;;;;4987812;28;20030;-65
2023/01/05 05:13:01;;;;;;;23.95;3.28;;;9.70;99.90;;;;;;4986513;28;20030;-64
2023/01/05 05:15:27;;;;;;;19.63;2.92;;;9.80;99.90;;;;;;4982303;28;20066;-64
2023/01/05 05:17:52;;;;;;;15.93;2.90;;;9.80;99.90;;;;;;4985098;28;20037;-64
2023/01/05 05:20:18;;;;;;;12.55;3.67;;;9.80;99.90;;;;;;4985592;28;20064;-62
2023/01/05 05:22:43;;;;;;;34.25;4.60;;;9.80;99.90;;;;;;4982504;28;20058;-64
2023/01/05 05:25:09;;;;;;;22.70;4.75;;;9.80;99.90;;;;;;4980290;28;20026;-65
2023/01/05 05:27:35;;;;;;;26.70;3.28;;;9.80;99.90;;;;;;4959357;28;20826;-63
2023/01/05 05:30:00;;;;;;;23.92;3.83;;;9.70;99.90;;;;;;4957808;28;20474;-66
2023/01/05 05:32:26;;;;;;;15.60;3.47;;;9.70;99.90;;;;;;4986859;28;20023;-64
2023/01/05 05:34:51;;;;;;;15.63;4.07;;;9.80;99.90;;;;;;4982002;28;20038;-66
2023/01/05 05:37:17;;;;;;;17.98;4.22;;;9.70;99.90;;;;;;4982448;28;20030;-65
2023/01/05 05:39:43;;;;;;;26.02;4.35;;;9.70;99.90;;;;;;4976578;28;20389;-65
2023/01/05 05:42:08;;;;;;;23.23;4.30;;;9.70;99.90;;;;;;4988092;28;20026;-64
2023/01/05 05:44:34;;;;;;;25.73;3.40;;;9.60;99.90;;;;;;4974722;28;20038;-65
2023/01/05 05:46:59;;;;;;;24.08;4.35;;;9.70;99.90;;;;;;4982333;28;20189;-66
2023/01/05 05:49:25;;;;;;;25.35;3.97;;;9.60;99.90;;;;;;4978110;28;20026;-64
2023/01/05 05:51:50;;;;;;;22.08;5.72;;;9.60;99.90;;;;;;4980826;28;20034;-65
2023/01/05 05:54:16;;;;;;;20.85;4.63;;;9.60;99.90;;;;;;4967420;28;20023;-64
2023/01/05 05:56:41;;;;;;;25.38;4.03;;;9.60;99.90;;;;;;4981158;28;20049;-66
2023/01/05 05:59:07;;;;;;;36.58;5.90;;;9.60;99.90;;;;;;4979636;28;20382;-65
2023/01/05 06:01:33;;;;;;;30.40;8.15;;;9.60;99.90;;;;;;4979353;28;20038;-65
2023/01/05 06:03:59;;;;;;;38.38;9.98;;;9.70;99.90;;;;;;4970633;28;20072;-64
2023/01/05 06:06:24;;;;;;;23.60;6.95;;;9.70;99.90;;;;;;4980555;28;20029;-65
2023/01/05 06:08:50;;;;;;;38.35;13.80;;;9.70;99.90;;;;;;4981833;28;20029;-64
2023/01/05 06:11:15;;;;;;;24.27;9.38;;;9.70;99.90;;;;;;4970215;28;20048;-64
2023/01/05 06:13:41;;;;;;;20.95;4.68;;;9.70;99.90;;;;;;4985617;28;20030;-64
2023/01/05 06:16:07;;;;;;;30.55;7.75;;;9.70;99.90;;;;;;4981142;28;20041;-65
2023/01/05 06:18:32;;;;;;;42.33;6.10;;;9.70;99.90;;;;;;4980388;28;20031;-64
2023/01/05 06:20:58;;;;;;;22.52;4.18;;;9.70;99.90;;;;;;4980667;28;20118;-65
2023/01/05 06:23:23;;;;;;;24.95;4.00;;;9.70;99.90;;;;;;4981798;28;20062;-65
2023/01/05 06:25:49;;;;;;;24.23;3.72;;;9.80;99.90;;;;;;4981618;28;20022;-63
2023/01/05 06:28:14;;;;;;;33.03;4.82;;;9.80;99.90;;;;;;4983103;28;20464;-65
2023/01/05 06:30:40;;;;;;;25.02;3.67;;;9.80;99.90;;;;;;4986801;28;20034;-64
2023/01/05 06:33:05;;;;;;;26.90;5.03;;;9.80;99.90;;;;;;4986325;28;20134;-66
2023/01/05 06:35:31;;;;;;;40.55;8.43;;;9.80;99.90;;;;;;4986511;28;20084;-65
2023/01/05 06:37:56;;;;;;;20.73;4.47;;;9.80;99.90;;;;;;4980922;28;20061;-68
2023/01/05 06:40:22;;;;;;;32.65;5.28;;;9.80;99.90;;;;;;4983765;28;20034;-68
2023/01/05 06:42:48;;;;;;;27.10;4.85;;;9.80;99.90;;;;;;4985353;28;20495;-64
2023/01/05 06:45:15;;;;;;;28.45;5.00;;;9.80;99.90;;;;;;4983149;28;20089;-64
2023/01/05 06:47:41;;;;;;;22.58;4.80;;;9.80;99.90;;;;;;4982964;28;20032;-63
2023/01/05 06:50:07;;;;;;;19.63;5.10;;;9.80;99.90;;;;;;4978812;28;20030;-63
2023/01/05 06:52:35;;;;;;;24.33;4.68;;;9.80;99.90;;;;;;4981111;28;20038;-64
2023/01/05 06:55:08;;;;;;;29.92;5.57;;;9.90;99.90;;;;;;4985882;28;20023;-64
2023/01/05 06:57:35;;;;;;;25.85;4.43;;;9.80;99.90;;;;;;4983102;28;20052;-65
2023/01/05 07:00:06;;;;;;;30.88;3.67;;;9.80;99.90;;;;;;4978577;28;20402;-65
2023/01/05 07:02:31;;;;;;;28.67;4.28;;;9.80;99.90;;;;;;4984128;28;20516;-63
2023/01/05 07:04:57;;;;;;;25.95;3.97;;;9.90;99.90;;;;;;4984271;28;20030;-64
2023/01/05 07:07:22;;;;;;;25.73;4.20;;;9.80;99.90;;;;;;4979461;28;20047;-63
2023/01/05 07:09:48;;;;;;;23.08;3.65;;;9.90;99.90;;;;;;4981781;28;20034;-64
2023/01/05 07:12:14;;;;;;;16.88;4.15;;;9.90;99.90;;;;;;4981199;28;20026;-63
2023/01/05 07:14:40;;;;;;;25.02;3.97;;;9.80;99.90;;;;;;4986196;28;20493;-64
2023/01/05 07:17:05;;;;;;;17.55;3.65;;;9.80;99.90;;;;;;4979738;28;20049;-66
2023/01/05 07:19:31;;;;;;;26.65;4.15;;;9.80;99.90;;;;;;4979409;28;20053;-66
2023/01/05 07:21:57;;;;;;;24.85;3.97;;;9.90;99.90;;;;;;4981709;28;20026;-64
2023/01/05 07:24:23;;;;;;;23.98;5.05;;;9.80;99.90;;;;;;4970864;28;20022;-66
2023/01/05 07:26:49;;;;;;;28.45;4.57;;;9.90;99.90;;;;;;4985500;28;20026;-66
2023/01/05 07:29:15;;;;;;;35.05;7.55;;;9.90;99.90;;;;;;4986022;28;20488;-64
2023/01/05 07:31:40;;;;;;;20.73;5.35;;;9.80;99.90;;;;;;4962348;28;20534;-65
2023/01/05 07:34:07;;;;;;;27.90;5.70;;;9.80;99.90;;;;;;4986146;28;20026;-66
2023/01/05 07:36:33;;;;;;;18.70;3.65;;;9.80;99.90;;;;;;4984630;28;20045;-64
2023/01/05 07:38:58;;;;;;;27.95;3.97;;;9.80;99.90;;;;;;4987145;28;20472;-65
2023/01/05 07:41:24;;;;;;;34.80;5.57;;;9.80;99.90;;;;;;4987194;28;20113;-63
2023/01/05 07:43:49;;;;;;;31.10;5.40;;;9.80;99.90;;;;;;4987815;28;20090;-64
2023/01/05 07:46:15;;;;;;;27.35;4.80;;;9.80;99.90;;;;;;4986259;28;20038;-64
2023/01/05 07:48:41;;;;;;;25.33;4.40;;;9.80;99.90;;;;;;4988042;28;20029;-63
2023/01/05 07:51:09;;;;;;;23.48;4.57;;;9.90;99.90;;;;;;4987161;28;20534;-65
2023/01/05 07:53:37;;;;;;;30.88;5.00;;;9.80;99.90;;;;;;4987748;28;20492;-64
2023/01/05 07:56:04;;;;;;;34.03;4.80;;;9.80;99.90;;;;;;4986031;28;20027;-64
2023/01/05 07:58:30;;;;;;;37.35;5.45;;;9.80;99.90;;;;;;4983743;28;20041;-66
2023/01/05 08:00:55;;;;;;;21.35;4.05;;;9.90;99.90;;;;;;4959132;28;20149;-66
2023/01/05 08:03:23;;;;;;;28.58;2.72;;;9.90;99.90;;;;;;4983438;28;20027;-66
2023/01/05 08:05:49;;;;;;;18.20;4.35;;;9.90;99.90;;;;;;4982804;28;20148;-64
2023/01/05 08:08:14;;;;;;;26.27;5.68;;;9.90;99.90;;;;;;4982781;28;20044;-63
2023/01/05 08:10:41;;;;;;;20.83;5.32;;;9.90;99.90;;;;;;4990976;28;20061;-64
2023/01/05 08:15:54;;;;;;;20.77;5.50;;;9.90;99.90;;;;;;4994151;28;20080;-63
2023/01/05 08:18:20;;;;;;;14.30;3.67;;;9.90;99.90;;;;;;4995043;28;20040;-64
2023/01/05 08:20:54;;;;;;;24.73;4.00;;;9.90;99.90;;;;;;4993354;28;20109;-63
2023/01/05 08:23:20;;;;;;;34.13;5.03;;;9.90;99.90;;;;;;4988641;28;20026;-65
2023/01/05 08:25:45;;;;;;;32.88;6.18;;;10.00;99.90;;;;;;5003111;28;20030;-64
2023/01/05 08:28:11;;;;;;;29.17;5.05;;;10.00;99.90;;;;;;5000011;28;20030;-65
2023/01/05 08:30:37;;;;;;;35.28;5.15;;;10.00;99.90;;;;;;4968408;28;20057;-64
2023/01/05 08:33:04;;;;;;;34.22;4.90;;;10.00;99.90;;;;;;5000114;28;20026;-62
2023/01/05 08:35:29;;;;;;;30.75;6.13;;;10.00;99.90;;;;;;5001046;28;20403;-64
2023/01/05 08:37:55;;;;;;;27.77;5.28;;;10.00;99.90;;;;;;4999803;28;20101;-64
2023/01/05 08:40:20;;;;;;;33.67;5.97;;;10.00;99.90;;;;;;4993282;28;20149;-60
2023/01/05 08:42:49;;;;;;;27.25;5.18;;;10.00;99.90;;;;;;4988164;28;20032;-64
2023/01/05 08:45:15;;;;;;;32.58;5.72;;;10.00;99.90;;;;;;5000282;28;20022;-64
2023/01/05 08:47:40;;;;;;;15.50;4.28;;;10.00;99.90;;;;;;4993578;28;20033;-64
2023/01/05 08:50:08;;;;;;;26.73;5.20;;;10.00;99.90;;;;;;4982217;28;20034;-64
2023/01/05 08:52:34;;;;;;;21.67;4.47;;;10.00;99.90;;;;;;4987540;28;20022;-62
2023/01/05 08:55:00;;;;;;;23.67;5.25;;;10.00;99.90;;;;;;4989325;28;20831;-65
2023/01/05 08:57:26;;;;;;;33.88;4.65;;;10.00;99.90;;;;;;4985347;28;20851;-64
2023/01/05 08:59:51;;;;;;;33.08;5.50;;;10.00;99.90;;;;;;4983969;28;20031;-64
2023/01/05 09:02:17;;;;;;;23.40;4.47;;;10.00;99.90;;;;;;4979603;28;20026;-64
2023/01/05 09:04:43;;;;;;;29.42;4.70;;;10.00;99.90;;;;;;4979798;28;20030;-63
2023/01/05 09:07:09;;;;;;;30.27;5.32;;;10.10;99.90;;;;;;4982006;28;20034;-65
2023/01/05 09:09:34;;;;;;;28.90;4.97;;;10.10;99.90;;;;;;4978499;28;20054;-64
2023/01/05 09:12:00;;;;;;;26.73;4.22;;;10.10;99.90;;;;;;4981718;28;20113;-64
2023/01/05 09:14:25;;;;;;;26.05;4.63;;;10.10;99.90;;;;;;4980201;28;20472;-66
2023/01/05 09:16:51;;;;;;;28.15;4.75;;;10.20;99.90;;;;;;4980136;28;20030;-64
2023/01/05 09:19:16;;;;;;;20.42;4.72;;;10.30;99.90;;;;;;4980692;28;20022;-66
2023/01/05 09:21:43;;;;;;;31.85;4.85;;;10.40;99.90;;;;;;4980606;28;20117;-65
2023/01/05 09:24:13;;;;;;;32.10;5.53;;;10.40;99.90;;;;;;4981683;28;20034;-63
2023/01/05 09:26:40;;;;;;;20.83;4.30;;;10.40;99.90;;;;;;4979529;28;20033;-64
2023/01/05 09:29:06;;;;;;;32.45;6.53;;;10.40;99.90;;;;;;4970781;28;20022;-64
2023/01/05 09:31:31;;;;;;;33.08;8.35;;;10.40;99.90;;;;;;4966717;28;20499;-66
2023/01/05 09:33:57;;;;;;;35.67;6.47;;;10.40;99.90;;;;;;4982673;28;20091;-64
2023/01/05 09:36:24;;;;;;;33.10;6.45;;;10.40;99.90;;;;;;4988573;28;20451;-65
2023/01/05 09:38:51;;;;;;;39.33;6.00;;;10.50;99.90;;;;;;4977070;28;20109;-64
2023/01/05 09:41:29;;;;;;;37.08;6.38;;;10.50;99.90;;;;;;4983375;28;20112;-64
2023/01/05 09:44:02;;;;;;;36.83;7.68;;;10.60;99.90;;;;;;4984784;28;20030;-65
2023/01/05 09:46:35;;;;;;;34.33;5.75;;;10.60;99.90;;;;;;4977200;28;20041;-64
2023/01/05 09:49:05;;;;;;;25.98;4.90;;;10.80;99.90;;;;;;4986006;28;20030;-65
2023/01/05 09:51:31;;;;;;;25.63;6.45;;;10.80;99.90;;;;;;4987078;28;20508;-66
2023/01/05 09:53:59;;;;;;;27.73;4.72;;;10.90;99.90;;;;;;4982995;28;20125;-64
2023/01/05 09:56:33;;;;;;;30.60;4.38;;;10.90;99.90;;;;;;4956647;28;20026;-66
2023/01/05 09:59:18;;;;;;;31.35;5.80;;;10.90;99.90;;;;;;4980467;28;20029;-65
2023/01/05 10:01:45;;;;;;;33.70;6.93;;;10.90;99.90;;;;;;4969402;28;20117;-64
2023/01/05 10:04:17;;;;;;;21.85;3.40;;;10.90;99.90;;;;;;4980434;28;20457;-64
2023/01/05 10:06:48;;;;;;;25.17;4.65;;;10.90;99.90;;;;;;4981131;28;20523;-65
2023/01/05 10:09:23;;;;;;;28.70;5.57;;;10.90;99.90;;;;;;4979467;28;20117;-63
2023/01/05 10:14:59;;;;;;;38.70;5.75;;;10.80;99.90;;;;;;4980124;28;20076;-63
2023/01/05 10:17:26;;;;;;;25.52;4.28;;;10.80;99.90;;;;;;4986080;28;20548;-65
2023/01/05 10:19:52;;;;;;;28.40;4.80;;;10.70;99.90;;;;;;4982599;28;20070;-65
2023/01/05 10:22:34;;;;;;;29.60;6.90;;;10.80;99.90;;;;;;4984593;28;20120;-64
2023/01/05 10:25:17;;;;;;;22.90;4.03;;;10.80;99.90;;;;;;4976542;28;20105;-64
2023/01/05 10:28:06;;;;;;;26.00;6.50;;;10.80;99.90;;;;;;4982227;28;20023;-63
2023/01/05 10:30:50;;;;;;;28.98;6.63;;;10.70;99.90;;;;;;4954534;28;20047;-64
2023/01/05 10:33:33;;;;;;;24.83;4.78;;;10.70;99.90;;;;;;4979155;28;20563;-64
2023/01/05 10:36:33;;;;;;;31.35;6.05;;;10.70;99.90;;;;;;4979441;28;20638;-65
2023/01/05 10:39:27;;;;;;;28.13;6.22;;;10.70;99.90;;;;;;4951211;28;20088;-64
2023/01/05 10:42:12;;;;;;;19.75;4.28;;;10.70;99.90;;;;;;4985207;28;20034;-65
2023/01/05 10:44:51;;;;;;;22.20;5.13;;;10.80;99.90;;;;;;4985698;28;20030;-62
2023/01/05 10:47:18;;;;;;;26.88;4.88;;;10.70;99.90;;;;;;4978689;28;20060;-64
2023/01/05 10:49:45;;;;;;;17.95;3.88;;;10.70;99.90;;;;;;4981272;28;20030;-63
2023/01/05 10:52:14;;;;;;;21.38;4.97;;;10.80;99.90;;;;;;4980271;28;20049;-64
2023/01/05 10:54:55;;;;;;;20.38;3.97;;;10.90;99.90;;;;;;4976624;28;20092;-65
2023/01/05 10:57:31;;;;;;;39.08;5.97;;;10.80;99.90;;;;;;4966255;28;20058;-65
2023/01/05 11:00:08;;;;;;;26.30;6.22;;;10.90;99.90;;;;;;4981283;28;20030;-64
2023/01/05 11:02:37;;;;;;;30.85;5.80;;;10.90;99.90;;;;;;4986401;28;20390;-66
2023/01/05 11:05:38;;;;;;;20.02;4.65;;;10.90;99.90;;;;;;4992130;28;20030;-65
2023/01/05 11:08:13;;;;;;;29.45;6.95;;;10.90;99.90;;;;;;4987298;28;20487;-65
2023/01/05 11:10:46;;;;;;;30.40;4.38;;;10.80;99.90;;;;;;4989752;28;20026;-64
2023/01/05 11:13:15;;;;;;;29.88;4.75;;;10.80;99.90;;;;;;4991735;28;20038;-65
2023/01/05 11:15:48;;;;;;;41.63;6.25;;;10.80;99.90;;;;;;4993279;28;20488;-64
2023/01/05 11:18:34;;;;;;;33.03;6.80;;;10.90;99.90;;;;;;4988303;28;20041;-64
2023/01/05 11:21:06;;;;;;;23.08;4.30;;;11.00;99.90;;;;;;4989768;28;20023;-66
2023/01/05 11:23:35;;;;;;;26.17;4.22;;;11.00;99.90;;;;;;4986669;28;20693;-66
2023/01/05 11:26:17;;;;;;;22.92;3.90;;;11.10;99.90;;;;;;4996634;28;20018;-65
2023/01/05 11:29:03;;;;;;;20.17;4.30;;;11.10;99.90;;;;;;4986568;28;20034;-66
2023/01/05 11:31:43;;;;;;;25.83;4.72;;;11.10;99.90;;;;;;4971302;28;20068;-66
2023/01/05 11:34:41;;;;;;;27.13;4.47;;;11.10;99.90;;;;;;4988592;28;20373;-65
2023/01/05 11:37:25;;;;;;;28.65;4.15;;;11.10;99.90;;;;;;4987835;28;20026;-67
2023/01/05 11:39:53;;;;;;;27.40;4.68;;;11.00;99.90;;;;;;4987312;28;20117;-65
2023/01/05 11:42:42;;;;;;;22.77;5.13;;;11.00;99.90;;;;;;4988927;28;20125;-66
2023/01/05 11:45:23;;;;;;;28.00;4.55;;;11.00;99.90;;;;;;5001361;22;20025;-61
2023/01/05 11:47:53;;;;;;;27.55;4.55;;;11.00;99.90;;;;;;5008163;28;20499;-62
2023/01/05 11:50:24;;;;;;;27.17;5.00;;;11.00;99.90;;;;;;5006012;28;20124;-62
2023/01/05 11:52:52;;;;;;;24.92;5.65;;;11.00;99.90;;;;;;5008689;28;20115;-62
2023/01/05 11:55:32;;;;;;;23.35;5.40;;;11.10;99.90;;;;;;5005678;28;20468;-62
2023/01/05 11:58:21;;;;;;;24.90;4.95;;;11.20;99.90;;;;;;5003392;28;20478;-62
2023/01/05 12:00:52;;;;;;;23.25;5.30;;;11.20;99.90;;;;;;5008178;28;20121;-62
2023/01/05 12:03:26;;;;;;;22.58;4.60;;;11.20;99.90;;;;;;5009339;28;20053;-62
2023/01/05 12:06:11;;;;;;;24.70;6.53;;;11.20;99.90;;;;;;5009725;28;20084;-63
2023/01/05 12:08:58;;;;;;;25.55;4.78;;;11.30;99.90;;;;;;5003000;28;20634;-63
2023/01/05 12:11:30;;;;;;;29.83;4.78;;;11.30;99.90;;;;;;5006526;28;20082;-63
2023/01/05 12:14:26;;;;;;;28.00;4.60;;;11.30;99.90;;;;;;5004047;28;20026;-63
2023/01/05 12:16:55;;;;;;;26.90;4.20;;;11.30;99.90;;;;;;5008655;28;20026;-63
2023/01/05 12:19:35;;;;;;;17.10;3.97;;;11.40;99.90;;;;;;5006580;28;20121;-63
2023/01/05 12:22:07;;;;;;;26.60;5.47;;;11.40;99.90;;;;;;5007493;28;20387;-63
2023/01/05 12:25:07;;;;;;;23.98;4.47;;;11.40;99.90;;;;;;5006161;28;20034;-63
2023/01/05 12:28:14;;;;;;;17.05;3.13;;;11.50;99.90;;;;;;5005726;28;20032;-63
2023/01/05 12:31:12;;;;;;;18.70;4.35;;;11.50;99.90;;;;;;4962623;28;20603;-64
2023/01/05 12:34:19;;;;;;;22.63;4.30;;;11.50;99.90;;;;;;4987309;28;20049;-63
2023/01/05 12:37:01;;;;;;;22.55;3.97;;;11.50;99.90;;;;;;4996226;28;20070;-63
2023/01/05 12:39:42;;;;;;;21.35;3.60;;;11.60;99.90;;;;;;5008673;28;20034;-63
2023/01/05 12:42:30;;;;;;;31.00;3.90;;;11.60;99.90;;;;;;5019652;28;20026;-63
2023/01/05 12:45:26;;;;;;;15.25;3.53;;;11.70;99.90;;;;;;5005242;28;20041;-64
2023/01/05 12:48:18;;;;;;;17.27;3.88;;;11.70;99.90;;;;;;5006567;28;20802;-63
2023/01/05 12:50:57;;;;;;;28.92;4.10;;;11.70;99.90;;;;;;5003135;28;20030;-63
2023/01/05 12:53:39;;;;;;;18.23;4.57;;;11.70;99.90;;;;;;5002833;28;20048;-63
2023/01/05 12:56:28;;;;;;;23.63;5.65;;;11.70;99.90;;;;;;5003926;28;20038;-63
2023/01/05 12:59:33;;;;;;;18.75;3.85;;;11.50;99.90;;;;;;5003125;28;20192;-63
2023/01/05 13:02:05;;;;;;;18.52;3.58;;;11.50;99.90;;;;;;5006361;28;20112;-63
2023/01/05 13:04:48;;;;;;;22.13;4.28;;;11.40;99.90;;;;;;5007505;28;20069;-63
2023/01/05 13:07:37;;;;;;;23.07;3.93;;;11.40;99.90;;;;;;5001057;28;20144;-62
2023/01/05 13:10:11;;;;;;;23.20;4.57;;;11.40;99.90;;;;;;5007148;28;20025;-63
2023/01/05 13:12:37;;;;;;;27.23;3.55;;;11.50;99.90;;;;;;5007407;28;20101;-64
2023/01/05 13:15:19;;;;;;;19.02;3.70;;;11.60;99.90;;;;;;5005433;28;20034;-64
2023/01/05 13:17:48;;;;;;;13.45;3.67;;;11.70;99.90;;;;;;5008703;28;20032;-64
2023/01/05 13:20:26;;;;;;;19.95;4.07;;;11.80;99.90;;;;;;5003975;28;20499;-63
2023/01/05 13:23:10;;;;;;;15.50;4.35;;;11.90;99.90;;;;;;5005395;28;20104;-64
2023/01/05 13:25:43;;;;;;;;;;;12.10;99.90;;;;;;5005458;28;20026;-63
2023/01/05 13:28:20;;;;;;;24.08;4.30;;;12.20;99.90;;;;;;5006076;28;19909;-63
2023/01/05 13:30:53;;;;;;;12.90;3.13;;;12.10;99.90;;;;;;5006468;28;20026;-64
2023/01/05 13:33:39;;;;;;;24.20;5.50;;;12.00;99.90;;;;;;5006199;28;20049;-62
2023/01/05 13:36:31;;;;;;;16.33;3.08;;;11.70;99.90;;;;;;5003998;28;20452;-63
2023/01/05 13:39:12;;;;;;;22.23;3.55;;;11.50;99.90;;;;;;5001853;28;20059;-63